Latest Weather Observations for Stawell

IDV60801

Issued at 7:35 pm EST Thursday 17 April 2014 (issued every 30 minutes, with the page automatically refreshed every 10 minutes)

About weather observations | Map of weather stations | Latest weather observations for VIC | Other Formats
Station Details ID: 079105 Name: STAWELL AERODROME Lat: -37.07 Lon: 142.74 Height: 235.36 m
Data from the previous 72 hours. | See also: Recent months at Stawell
Date/Time
EST
Temp
°C
App
Temp
°C
Dew
Point
Rel
Hum
%
Delta-T
°C
Wind Press
QNH
hPa
Press
MSL
hPa
Rain
since 9 am
mm
Dir
 
Spd
km/h
Gust
km/h
Spd
kts
Gust
kts
17/07:30pm 15.5 14.8 7.0 57 4.2 NW 0 0 0 0 1017.6 - 0.0
17/07:00pm 16.0 14.0 6.4 53 4.7 NW 6 6 3 3 1017.5 - 0.0
17/06:30pm 17.7 15.6 5.9 46 5.8 NW 6 7 3 4 1017.5 - 0.0
17/06:00pm 19.5 17.2 5.9 41 6.8 WNW 7 9 4 5 1017.5 1018.2 0.0
17/05:30pm 20.9 17.7 4.9 35 7.9 NW 11 17 6 9 1017.3 - 0.0
17/05:00pm 21.7 17.7 4.7 33 8.4 NW 15 20 8 11 1017.3 - 0.0
17/04:30pm 21.7 17.6 4.3 32 8.6 NW 15 24 8 13 1017.3 - 0.0
17/04:00pm 21.8 17.2 3.9 31 8.8 NW 17 24 9 13 1017.5 - 0.0
17/03:30pm 21.9 17.5 4.5 32 8.6 NNW 17 24 9 13 1017.6 - 0.0
17/03:00pm 21.7 16.9 4.7 33 8.4 WNW 19 20 10 11 1017.9 1018.5 0.0
17/02:30pm 21.7 18.1 5.2 34 8.3 NNW 13 24 7 13 1018.0 - 0.0
17/02:00pm 21.8 18.4 5.7 35 8.2 NNW 13 20 7 11 1018.2 - 0.0
17/01:30pm 21.4 18.0 5.7 36 7.9 N 13 20 7 11 1018.4 - 0.0
17/01:00pm 21.1 18.1 6.2 38 7.6 NW 11 19 6 10 1018.9 - 0.0
17/12:30pm 20.3 17.0 6.6 41 7.0 NNW 13 20 7 11 1019.4 - 0.0
17/12:00pm 20.4 18.2 7.7 44 6.6 NNW 9 19 5 10 1019.8 1020.5 0.0
17/11:30am 19.7 17.2 8.4 48 5.9 WNW 11 19 6 10 1020.2 - 0.0
17/11:00am 19.1 17.1 8.7 51 5.5 NW 9 15 5 8 1020.2 - 0.0
17/10:30am 18.5 17.0 9.3 55 4.9 NNW 7 13 4 7 1020.2 - 0.0
17/10:00am 17.5 16.9 8.9 57 4.5 SSW 2 6 1 3 1020.4 - 0.0
17/09:30am 16.3 15.8 9.3 63 3.7 SSW 2 6 1 3 1020.4 - 0.0
17/09:00am 15.1 15.1 9.7 70 2.8 CALM 0 0 0 0 1020.4 1021.1 0.0
17/08:30am 12.3 12.4 10.2 87 1.1 CALM 0 0 0 0 1020.2 - 0.0
17/08:00am 10.0 9.8 9.1 94 0.5 CALM 0 0 0 0 1019.8 - 0.0
17/07:30am 8.3 7.8 7.9 97 0.2 CALM 0 6 0 3 1019.7 - 0.0
17/07:00am 8.1 6.2 7.7 97 0.2 SSW 7 9 4 5 1019.4 - 0.0
17/06:30am 7.7 6.6 7.1 96 0.3 SSW 2 7 1 4 1019.2 - 0.0
17/06:00am 7.9 7.3 7.5 97 0.2 SSW 0 0 0 0 1019.1 1019.8 0.0
17/05:30am 7.8 7.2 7.2 96 0.3 CALM 0 0 0 0 1018.9 - 0.0
17/05:00am 8.6 7.0 8.0 96 0.3 SSW 6 7 3 4 1018.8 - 0.0
17/04:30am 8.6 8.1 8.0 96 0.3 CALM 0 0 0 0 1018.7 - 0.0
17/04:00am 8.7 8.2 7.9 95 0.4 CALM 0 0 0 0 1018.5 - 0.0
17/03:30am 9.3 9.0 8.7 96 0.3 CALM 0 2 0 1 1018.5 - 0.0
17/03:00am 8.9 8.4 8.0 94 0.4 CALM 0 4 0 2 1018.6 1019.3 0.0
17/02:30am 10.0 8.4 8.9 93 0.5 ESE 7 9 4 5 1018.6 - 0.0
17/02:00am 10.4 10.2 9.2 92 0.6 CALM 0 0 0 0 1018.8 - 0.0
17/01:30am 10.7 10.6 9.5 92 0.6 CALM 0 0 0 0 1018.9 - 0.0
17/01:00am 10.5 9.1 8.9 90 0.8 ESE 6 7 3 4 1018.8 - 0.0
17/12:30am 11.5 10.3 9.4 87 1.1 ENE 6 7 3 4 1018.8 - 0.0
17/12:00am 12.5 12.5 9.9 84 1.3 ENE 0 0 0 0 1018.8 1019.5 0.0
 
Date/Time
EST
Temp
°C
App
Temp
°C
Dew
Point
Rel
Hum
%
Delta-T
°C
Wind Press
QNH
hPa
Press
MSL
hPa
Rain
since 9 am
mm
Dir
 
Spd
km/h
Gust
km/h
Spd
kts
Gust
kts
16/11:30pm 13.5 12.3 9.4 76 2.1 SSE 6 7 3 4 1018.7 - 0.0
16/11:00pm 13.5 13.6 10.3 81 1.7 CALM 0 7 0 4 1018.9 - 0.0
16/10:30pm 13.9 12.1 9.5 75 2.3 SSW 9 11 5 6 1018.9 - 0.0
16/10:00pm 14.1 14.2 10.3 78 2.0 CALM 0 0 0 0 1018.9 - 0.0
16/09:30pm 15.1 13.9 9.5 69 2.9 SSW 6 9 3 5 1018.6 - 0.0
16/09:00pm 15.3 14.5 10.9 75 2.4 SE 6 7 3 4 1018.5 1019.2 0.0
16/08:30pm 15.9 14.2 10.0 68 3.1 ENE 9 13 5 7 1018.0 - 0.0
16/08:00pm 15.8 14.8 9.0 64 3.5 WNW 4 6 2 3 1018.4 - 0.0
16/07:30pm 16.3 16.1 9.0 62 3.8 CALM 0 0 0 0 1018.5 - 0.0
16/07:00pm 17.2 17.0 8.9 58 4.3 CALM 0 0 0 0 1018.7 - 0.0
16/06:30pm 17.5 17.3 8.9 57 4.5 CALM 0 0 0 0 1018.4 - 0.0
16/06:00pm 18.6 18.1 7.7 49 5.6 CALM 0 0 0 0 1018.2 1018.8 0.0
16/05:30pm 19.5 18.1 7.3 45 6.3 WNW 4 7 2 4 1018.2 - 0.0
16/05:00pm 19.9 18.1 7.3 44 6.5 W 6 9 3 5 1018.0 - 0.0
16/04:30pm 19.9 18.5 7.3 44 6.5 W 4 9 2 5 1017.7 - 0.0
16/04:00pm 20.3 18.1 8.0 45 6.4 WNW 9 13 5 7 1017.7 - 0.0
16/03:30pm 19.7 16.2 7.1 44 6.5 NW 15 19 8 10 1017.9 - 0.0
16/03:00pm 19.7 15.8 7.1 44 6.4 NW 17 26 9 14 1017.7 1018.4 0.0
16/02:30pm 19.9 16.5 7.6 45 6.4 NW 15 28 8 15 1017.9 - 0.0
16/02:00pm 19.8 16.5 7.9 46 6.2 NW 15 24 8 13 1018.1 - 0.0
16/01:30pm 19.1 15.3 7.5 47 6.0 NNW 17 26 9 14 1018.3 - 0.0
16/01:00pm 18.9 15.9 7.7 48 5.8 NNW 13 20 7 11 1018.5 - 0.0
16/12:30pm 18.9 16.2 8.8 52 5.3 NNW 13 24 7 13 1018.9 - 0.0
16/12:00pm 17.9 15.1 8.5 54 4.9 NW 13 20 7 11 1019.3 1020.0 0.0
16/11:30am 17.0 15.4 10.1 64 3.7 NW 9 13 5 7 1019.6 - 0.0
16/11:00am 15.5 15.4 10.9 74 2.5 NNW 2 9 1 5 1019.9 - 0.0
16/10:30am 13.1 12.2 11.3 89 1.0 NNW 7 11 4 6 1020.2 - 0.0
16/10:00am 11.6 12.0 11.4 99 0.1 CALM 0 6 0 3 1020.4 - 0.0
16/09:30am 10.5 9.5 10.3 99 0.1 E 6 9 3 5 1020.5 - 0.0
16/09:00am 10.0 8.9 9.9 99 0.1 E 6 7 3 4 1020.4 1021.1 0.0
16/08:30am 9.2 7.9 9.1 99 0.0 ESE 6 7 3 4 1020.7 - 0.0
16/08:00am 9.1 8.9 9.0 99 0.0 CALM 0 0 0 0 1020.4 - 0.0
16/07:30am 8.2 6.6 8.1 99 0.0 WSW 6 7 3 4 1020.2 - 0.0
16/07:00am 8.5 7.0 8.4 99 0.0 SE 6 9 3 5 1019.8 - 0.0
16/06:30am 7.7 6.7 7.4 98 0.1 ENE 2 7 1 4 1019.6 - 0.0
16/06:00am 7.2 5.3 6.8 97 0.2 NNE 6 7 3 4 1019.6 1020.3 0.0
16/05:30am 6.7 4.7 6.3 97 0.2 SSE 6 9 3 5 1019.8 - 0.0
16/05:00am 7.8 7.2 7.4 97 0.2 CALM 0 0 0 0 1019.6 - 0.0
16/04:30am 7.4 6.7 6.8 96 0.3 CALM 0 6 0 3 1019.9 - 0.0
16/04:00am 7.6 6.9 7.0 96 0.3 CALM 0 4 0 2 1020.0 - 0.0
16/03:30am 8.2 6.3 7.6 96 0.3 SE 7 9 4 5 1020.0 - 0.0
16/03:00am 9.6 8.0 8.8 95 0.4 SW 7 9 4 5 1020.1 1020.8 0.0
16/02:30am 8.6 6.8 7.8 95 0.4 SSW 7 9 4 5 1020.3 - 0.0
16/02:00am 8.4 7.8 7.5 94 0.4 CALM 0 0 0 0 1020.4 - 0.0
16/01:30am 9.4 7.8 8.2 92 0.6 S 6 7 3 4 1020.4 - 0.0
16/01:00am 9.9 7.9 8.8 93 0.5 SW 9 11 5 6 1020.7 - 0.0
16/12:30am 10.0 8.9 8.3 89 0.8 S 4 6 2 3 1020.7 - 0.0
16/12:00am 11.1 9.2 9.0 87 1.1 S 9 11 5 6 1021.0 1021.7 0.0
 
Date/Time
EST
Temp
°C
App
Temp
°C
Dew
Point
Rel
Hum
%
Delta-T
°C
Wind Press
QNH
hPa
Press
MSL
hPa
Rain
since 9 am
mm
Dir
 
Spd
km/h
Gust
km/h
Spd
kts
Gust
kts
15/11:30pm 11.3 9.5 9.4 88 1.0 S 9 13 5 7 1021.3 - 0.0
15/11:00pm 10.9 9.4 9.2 89 0.9 SSW 7 9 4 5 1021.4 - 0.0
15/10:30pm 11.1 9.7 9.0 87 1.1 SSW 6 9 3 5 1021.6 - 0.0
15/10:00pm 12.0 11.0 9.0 82 1.5 W 4 9 2 5 1021.7 - 0.0
15/09:30pm 13.0 12.9 9.4 79 1.9 CALM 0 6 0 3 1021.6 - 0.0
15/09:00pm 14.5 12.8 9.7 73 2.5 SSE 9 11 5 6 1021.6 1022.3 0.0
15/08:30pm 15.1 12.2 9.7 70 2.8 SE 15 20 8 11 1021.5 - 0.0
15/08:00pm 15.6 12.7 9.5 67 3.2 SE 15 22 8 12 1021.3 - 0.0
15/07:30pm 16.2 12.9 9.4 64 3.6 SE 17 24 9 13 1021.2 - 0.0
15/07:00pm 16.5 13.4 9.0 61 3.9 SE 15 22 8 12 1021.1 - 0.0
15/06:30pm 17.0 13.8 8.4 57 4.4 SSE 15 20 8 11 1020.8 - 0.0
15/06:00pm 17.8 14.8 7.8 52 5.1 SSE 13 17 7 9 1020.5 1021.2 0.0
15/05:30pm 18.1 15.2 8.1 52 5.2 SSE 13 17 7 9 1020.4 - 0.0
15/05:00pm 18.9 15.1 7.4 47 5.9 SE 17 28 9 15 1020.3 - 0.0
15/04:30pm 18.3 14.8 7.4 49 5.6 SSE 15 20 8 11 1020.2 - 0.0
15/04:00pm 18.7 16.0 7.5 48 5.8 SE 11 19 6 10 1020.1 - 0.0
15/03:30pm 18.2 14.7 7.3 49 5.6 SSE 15 20 8 11 1020.4 - 0.0
15/03:00pm 18.9 14.5 6.7 45 6.2 SSE 19 33 10 18 1020.6 1021.3 0.0
15/02:30pm 18.2 13.7 8.7 54 5.0 SSE 22 32 12 17 1020.6 - 0.0
15/02:00pm 18.2 13.9 9.5 57 4.6 SSE 22 30 12 16 1020.7 - 0.0
15/01:30pm 17.9 14.7 10.0 60 4.2 SSE 17 30 9 16 1021.0 - 0.0
15/01:00pm 17.1 14.4 10.5 65 3.6 SSE 15 22 8 12 1021.5 - 0.0
15/12:30pm 16.1 12.7 11.1 72 2.7 SSE 20 26 11 14 1022.2 - 0.0
15/12:00pm 16.2 13.7 11.2 72 2.7 SSE 15 22 8 12 1022.6 1023.3 0.0
15/11:30am 15.7 11.8 10.9 73 2.6 SSE 22 30 12 16 1022.9 - 0.0
15/11:00am 16.1 12.1 10.6 70 3.0 SE 22 30 12 16 1023.0 - 0.0
15/10:30am 15.9 12.4 10.2 69 3.0 SE 19 32 10 17 1023.0 - 0.0
15/10:00am 14.7 11.2 10.3 75 2.3 SSE 19 28 10 15 1023.2 - 0.0
15/09:30am 14.5 11.1 10.5 77 2.1 S 19 24 10 13 1023.3 - 0.0
15/09:00am 13.6 9.9 10.0 79 1.9 SSE 20 32 11 17 1023.4 1024.1 0.0
15/08:30am 13.4 10.5 9.8 79 1.9 SSE 15 24 8 13 1023.4 - 0.0
15/08:00am 12.4 9.6 10.1 86 1.2 SE 15 24 8 13 1023.2 - 0.0
15/07:30am 11.7 9.6 9.9 89 0.9 SE 11 17 6 9 1022.9 - 0.0
15/07:00am 11.9 9.2 10.3 90 0.8 SE 15 20 8 11 1022.5 - 0.0
15/06:30am 11.5 10.3 10.2 92 0.7 SSE 7 9 4 5 1022.5 - 0.0
15/06:00am 11.5 10.5 10.2 92 0.7 SE 6 7 3 4 1022.3 1023.1 0.0
15/05:30am 11.6 9.6 10.3 92 0.7 S 11 17 6 9 1022.2 - 0.0
15/05:00am 11.9 9.6 10.5 91 0.7 SSE 13 17 7 9 1022.1 - 0.0
15/04:30am 12.0 10.2 10.7 92 0.7 S 11 17 6 9 1021.9 - 0.0
15/04:00am 11.7 9.4 10.6 93 0.6 S 13 20 7 11 1021.9 - 0.0
15/03:30am 11.0 9.1 10.4 96 0.3 S 11 20 6 11 1022.0 - 0.0
15/03:00am 10.6 8.4 9.5 93 0.6 SSW 11 15 6 8 1022.1 1022.9 0.0
15/02:30am 12.0 9.6 10.1 88 1.0 SSE 13 19 7 10 1022.2 - 0.0
15/02:00am 11.9 9.1 10.1 89 0.9 SE 15 22 8 12 1022.5 - 0.0
15/01:30am 12.1 8.4 10.3 89 0.9 SE 20 30 11 16 1022.7 - 0.0
15/01:00am 12.2 8.8 10.4 89 0.9 SSE 19 26 10 14 1022.7 - 0.0
15/12:30am 11.9 8.2 10.1 89 0.9 SSE 20 32 11 17 1022.6 - 0.0
15/12:00am 12.6 8.5 10.0 84 1.3 SSE 22 30 12 16 1022.5 1023.2 0.0
 
Date/Time
EST
Temp
°C
App
Temp
°C
Dew
Point
Rel
Hum
%
Delta-T
°C
Wind Press
QNH
hPa
Press
MSL
hPa
Rain
since 9 am
mm
Dir
 
Spd
km/h
Gust
km/h
Spd
kts
Gust
kts
14/11:30pm 12.6 9.2 9.2 80 1.7 SE 17 24 9 13 1022.5 - 0.0
14/11:00pm 12.9 9.0 9.5 80 1.8 SE 20 28 11 15 1022.7 - 0.0
14/10:30pm 13.0 9.0 9.1 77 2.0 SE 20 32 11 17 1022.9 - 0.0
14/10:00pm 13.4 9.4 8.3 71 2.6 SE 19 28 10 15 1023.0 - 0.0
14/09:30pm 13.8 10.0 7.6 66 3.1 SSE 17 20 9 11 1022.9 - 0.0
14/09:00pm 14.2 10.6 6.6 60 3.7 SE 15 22 8 12 1022.8 1023.5 0.0
14/08:30pm 14.4 10.7 6.5 59 3.9 SE 15 22 8 12 1022.6 - 0.0
14/08:00pm 14.9 10.9 6.5 57 4.1 SE 17 22 9 12 1022.3 - 0.0

Other Formats:

Comma delimited format used in spreadsheet applications
http://www.bom.gov.au/fwo/IDV60801/IDV60801.94836.axf

JavaScript Object Notation format (JSON) in row-major order
http://www.bom.gov.au/fwo/IDV60801/IDV60801.94836.json